sensor_id;sensor_type;location;lat;lon;timestamp;P1;durP1;ratioP1;P2;durP2;ratioP2
16727;SDS011;8482;54.396;18.590;2024-02-21T16:45:47;5.38;;;1.80;;
16727;SDS011;8482;54.396;18.590;2024-02-21T16:48:13;2.38;;;1.25;;
16727;SDS011;8482;54.396;18.590;2024-02-21T16:50:39;3.00;;;1.30;;
16727;SDS011;8482;54.396;18.590;2024-02-21T16:53:05;3.15;;;1.40;;
16727;SDS011;8482;54.396;18.590;2024-02-21T16:55:30;4.15;;;1.33;;
16727;SDS011;8482;54.396;18.590;2024-02-21T16:57:59;4.63;;;1.48;;
16727;SDS011;8482;54.396;18.590;2024-02-21T17:00:26;3.92;;;1.30;;
16727;SDS011;8482;54.396;18.590;2024-02-21T17:02:52;4.53;;;1.48;;
16727;SDS011;8482;54.396;18.590;2024-02-21T17:05:17;3.30;;;1.30;;
16727;SDS011;8482;54.396;18.590;2024-02-21T17:07:45;4.82;;;1.45;;
16727;SDS011;8482;54.396;18.590;2024-02-21T17:10:11;4.35;;;1.40;;
16727;SDS011;8482;54.396;18.590;2024-02-21T17:12:37;5.95;;;1.65;;
16727;SDS011;8482;54.396;18.590;2024-02-21T17:15:03;4.88;;;1.92;;
16727;SDS011;8482;54.396;18.590;2024-02-21T17:17:29;6.45;;;1.80;;
16727;SDS011;8482;54.396;18.590;2024-02-21T17:19:55;5.78;;;1.63;;
16727;SDS011;8482;54.396;18.590;2024-02-21T17:22:21;7.70;;;2.00;;
16727;SDS011;8482;54.396;18.590;2024-02-21T17:24:47;5.72;;;1.80;;
16727;SDS011;8482;54.396;18.590;2024-02-21T17:27:13;6.45;;;1.88;;
16727;SDS011;8482;54.396;18.590;2024-02-21T17:29:41;4.63;;;1.98;;
16727;SDS011;8482;54.396;18.590;2024-02-21T17:32:07;5.95;;;1.60;;
16727;SDS011;8482;54.396;18.590;2024-02-21T17:34:33;6.18;;;2.30;;
16727;SDS011;8482;54.396;18.590;2024-02-21T17:36:59;3.25;;;1.58;;
16727;SDS011;8482;54.396;18.590;2024-02-21T17:39:25;7.07;;;1.95;;
16727;SDS011;8482;54.396;18.590;2024-02-21T17:41:51;6.13;;;2.35;;
16727;SDS011;8482;54.396;18.590;2024-02-21T17:44:18;4.68;;;1.65;;
16727;SDS011;8482;54.396;18.590;2024-02-21T17:46:45;6.32;;;1.80;;
16727;SDS011;8482;54.396;18.590;2024-02-21T17:49:11;7.03;;;1.90;;
16727;SDS011;8482;54.396;18.590;2024-02-21T17:51:41;4.03;;;1.77;;
16727;SDS011;8482;54.396;18.590;2024-02-21T17:54:08;4.03;;;1.38;;
16727;SDS011;8482;54.396;18.590;2024-02-21T17:56:34;4.53;;;1.55;;
16727;SDS011;8482;54.396;18.590;2024-02-21T17:59:00;5.00;;;1.70;;
16727;SDS011;8482;54.396;18.590;2024-02-21T18:01:26;6.07;;;1.90;;
16727;SDS011;8482;54.396;18.590;2024-02-21T18:03:52;7.18;;;2.95;;
16727;SDS011;8482;54.396;18.590;2024-02-21T18:06:19;6.05;;;2.47;;
16727;SDS011;8482;54.396;18.590;2024-02-21T18:08:44;4.32;;;1.50;;
16727;SDS011;8482;54.396;18.590;2024-02-21T18:11:10;5.55;;;1.55;;
16727;SDS011;8482;54.396;18.590;2024-02-21T18:13:36;5.70;;;1.85;;
16727;SDS011;8482;54.396;18.590;2024-02-21T18:16:02;5.40;;;1.95;;
16727;SDS011;8482;54.396;18.590;2024-02-21T18:18:29;7.90;;;2.15;;
16727;SDS011;8482;54.396;18.590;2024-02-21T18:20:55;3.65;;;1.65;;
16727;SDS011;8482;54.396;18.590;2024-02-21T18:23:22;5.13;;;1.60;;
16727;SDS011;8482;54.396;18.590;2024-02-21T18:25:48;3.75;;;1.42;;
16727;SDS011;8482;54.396;18.590;2024-02-21T18:28:14;4.72;;;1.65;;
16727;SDS011;8482;54.396;18.590;2024-02-21T18:30:40;4.60;;;1.60;;
16727;SDS011;8482;54.396;18.590;2024-02-21T18:33:06;3.45;;;1.52;;
16727;SDS011;8482;54.396;18.590;2024-02-21T18:35:32;5.13;;;1.38;;
16727;SDS011;8482;54.396;18.590;2024-02-21T18:37:58;4.13;;;1.60;;
16727;SDS011;8482;54.396;18.590;2024-02-21T18:40:27;4.07;;;1.58;;
16727;SDS011;8482;54.396;18.590;2024-02-21T18:42:54;4.30;;;1.67;;
16727;SDS011;8482;54.396;18.590;2024-02-21T18:45:23;5.47;;;1.48;;
16727;SDS011;8482;54.396;18.590;2024-02-21T18:47:49;5.80;;;1.85;;
16727;SDS011;8482;54.396;18.590;2024-02-21T18:50:16;3.00;;;1.33;;
16727;SDS011;8482;54.396;18.590;2024-02-21T18:52:43;4.82;;;1.50;;
16727;SDS011;8482;54.396;18.590;2024-02-21T18:55:12;3.47;;;1.50;;
16727;SDS011;8482;54.396;18.590;2024-02-21T18:57:40;5.40;;;1.58;;
16727;SDS011;8482;54.396;18.590;2024-02-21T19:00:06;6.45;;;2.58;;
16727;SDS011;8482;54.396;18.590;2024-02-21T19:02:35;5.43;;;1.60;;
16727;SDS011;8482;54.396;18.590;2024-02-21T19:05:02;5.60;;;1.60;;
16727;SDS011;8482;54.396;18.590;2024-02-21T19:07:31;6.30;;;1.88;;
16727;SDS011;8482;54.396;18.590;2024-02-21T19:09:59;6.07;;;1.90;;
16727;SDS011;8482;54.396;18.590;2024-02-21T19:12:26;4.18;;;1.77;;
16727;SDS011;8482;54.396;18.590;2024-02-21T19:14:52;3.90;;;1.58;;
16727;SDS011;8482;54.396;18.590;2024-02-21T19:17:18;4.55;;;1.70;;
16727;SDS011;8482;54.396;18.590;2024-02-21T19:19:44;5.85;;;2.15;;
16727;SDS011;8482;54.396;18.590;2024-02-21T19:22:12;6.18;;;1.98;;
16727;SDS011;8482;54.396;18.590;2024-02-21T19:24:38;6.07;;;2.05;;
16727;SDS011;8482;54.396;18.590;2024-02-21T19:27:05;7.05;;;2.35;;
16727;SDS011;8482;54.396;18.590;2024-02-21T19:29:31;8.35;;;2.00;;
16727;SDS011;8482;54.396;18.590;2024-02-21T19:31:57;5.95;;;2.03;;
16727;SDS011;8482;54.396;18.590;2024-02-21T19:34:26;5.95;;;2.17;;
16727;SDS011;8482;54.396;18.590;2024-02-21T19:36:53;7.80;;;2.33;;
16727;SDS011;8482;54.396;18.590;2024-02-21T19:39:19;6.53;;;1.90;;
16727;SDS011;8482;54.396;18.590;2024-02-21T19:41:45;6.50;;;1.83;;
16727;SDS011;8482;54.396;18.590;2024-02-21T19:44:11;6.75;;;1.92;;
16727;SDS011;8482;54.396;18.590;2024-02-21T19:46:37;5.05;;;2.03;;
16727;SDS011;8482;54.396;18.590;2024-02-21T19:49:03;7.00;;;1.92;;
16727;SDS011;8482;54.396;18.590;2024-02-21T19:51:29;6.00;;;2.20;;
16727;SDS011;8482;54.396;18.590;2024-02-21T19:53:55;5.45;;;2.08;;
16727;SDS011;8482;54.396;18.590;2024-02-21T19:56:21;6.25;;;2.45;;
16727;SDS011;8482;54.396;18.590;2024-02-21T19:58:47;5.03;;;1.73;;
16727;SDS011;8482;54.396;18.590;2024-02-21T20:01:13;6.05;;;2.17;;
16727;SDS011;8482;54.396;18.590;2024-02-21T20:03:41;7.97;;;2.67;;
16727;SDS011;8482;54.396;18.590;2024-02-21T20:06:08;6.35;;;2.63;;
16727;SDS011;8482;54.396;18.590;2024-02-21T20:08:34;6.57;;;2.53;;
16727;SDS011;8482;54.396;18.590;2024-02-21T20:11:00;7.30;;;2.50;;
16727;SDS011;8482;54.396;18.590;2024-02-21T20:13:26;7.50;;;2.13;;
16727;SDS011;8482;54.396;18.590;2024-02-21T20:15:52;7.45;;;2.30;;
16727;SDS011;8482;54.396;18.590;2024-02-21T20:18:18;7.30;;;3.00;;
16727;SDS011;8482;54.396;18.590;2024-02-21T20:20:44;7.65;;;2.00;;
16727;SDS011;8482;54.396;18.590;2024-02-21T20:23:10;7.93;;;2.40;;
16727;SDS011;8482;54.396;18.590;2024-02-21T20:25:40;5.93;;;1.77;;
16727;SDS011;8482;54.396;18.590;2024-02-21T20:28:07;6.50;;;1.90;;
16727;SDS011;8482;54.396;18.590;2024-02-21T20:30:33;7.50;;;1.98;;
16727;SDS011;8482;54.396;18.590;2024-02-21T20:32:59;6.03;;;2.60;;
16727;SDS011;8482;54.396;18.590;2024-02-21T20:35:26;6.80;;;2.10;;
16727;SDS011;8482;54.396;18.590;2024-02-21T20:37:52;10.23;;;2.75;;
16727;SDS011;8482;54.396;18.590;2024-02-21T20:40:18;6.28;;;2.15;;
16727;SDS011;8482;54.396;18.590;2024-02-21T20:42:44;7.85;;;3.33;;
16727;SDS011;8482;54.396;18.590;2024-02-21T20:45:10;7.50;;;2.17;;
16727;SDS011;8482;54.396;18.590;2024-02-21T20:47:36;7.43;;;2.22;;
16727;SDS011;8482;54.396;18.590;2024-02-21T20:50:02;5.47;;;2.00;;
16727;SDS011;8482;54.396;18.590;2024-02-21T20:52:28;6.97;;;2.30;;
16727;SDS011;8482;54.396;18.590;2024-02-21T20:54:54;6.95;;;1.77;;
16727;SDS011;8482;54.396;18.590;2024-02-21T20:57:20;9.13;;;2.10;;
16727;SDS011;8482;54.396;18.590;2024-02-21T20:59:46;5.45;;;2.35;;
16727;SDS011;8482;54.396;18.590;2024-02-21T21:02:12;8.40;;;2.28;;
16727;SDS011;8482;54.396;18.590;2024-02-21T21:04:38;5.10;;;2.30;;
16727;SDS011;8482;54.396;18.590;2024-02-21T21:07:04;6.03;;;2.05;;
16727;SDS011;8482;54.396;18.590;2024-02-21T21:09:31;7.47;;;1.95;;
16727;SDS011;8482;54.396;18.590;2024-02-21T21:11:57;6.53;;;2.20;;
16727;SDS011;8482;54.396;18.590;2024-02-21T21:14:23;9.20;;;2.40;;
16727;SDS011;8482;54.396;18.590;2024-02-21T21:16:51;7.55;;;2.45;;
16727;SDS011;8482;54.396;18.590;2024-02-21T21:19:18;5.43;;;1.92;;
16727;SDS011;8482;54.396;18.590;2024-02-21T21:21:43;6.90;;;1.88;;
16727;SDS011;8482;54.396;18.590;2024-02-21T21:24:10;6.00;;;2.10;;
16727;SDS011;8482;54.396;18.590;2024-02-21T21:26:37;6.15;;;2.55;;
16727;SDS011;8482;54.396;18.590;2024-02-21T21:29:02;8.20;;;2.50;;
16727;SDS011;8482;54.396;18.590;2024-02-21T21:31:28;6.22;;;2.20;;
16727;SDS011;8482;54.396;18.590;2024-02-21T21:33:54;5.57;;;2.22;;
16727;SDS011;8482;54.396;18.590;2024-02-21T21:36:20;6.20;;;2.25;;
16727;SDS011;8482;54.396;18.590;2024-02-21T21:38:46;5.25;;;2.22;;
16727;SDS011;8482;54.396;18.590;2024-02-21T21:41:15;8.68;;;2.53;;
16727;SDS011;8482;54.396;18.590;2024-02-21T21:43:42;6.45;;;2.10;;
16727;SDS011;8482;54.396;18.590;2024-02-21T21:46:11;6.95;;;2.17;;
16727;SDS011;8482;54.396;18.590;2024-02-21T21:48:39;6.07;;;2.72;;
16727;SDS011;8482;54.396;18.590;2024-02-21T21:51:09;6.82;;;2.10;;
16727;SDS011;8482;54.396;18.590;2024-02-21T21:53:36;6.55;;;2.05;;
16727;SDS011;8482;54.396;18.590;2024-02-21T21:56:02;5.97;;;2.10;;
16727;SDS011;8482;54.396;18.590;2024-02-21T21:58:31;8.32;;;2.22;;
16727;SDS011;8482;54.396;18.590;2024-02-21T22:00:57;6.25;;;2.03;;
16727;SDS011;8482;54.396;18.590;2024-02-21T22:03:23;5.40;;;2.15;;
16727;SDS011;8482;54.396;18.590;2024-02-21T22:05:49;6.55;;;2.25;;
16727;SDS011;8482;54.396;18.590;2024-02-21T22:08:15;5.85;;;2.38;;
16727;SDS011;8482;54.396;18.590;2024-02-21T22:10:41;5.47;;;2.03;;
16727;SDS011;8482;54.396;18.590;2024-02-21T22:13:07;5.80;;;2.00;;
16727;SDS011;8482;54.396;18.590;2024-02-21T22:15:33;7.72;;;2.47;;
16727;SDS011;8482;54.396;18.590;2024-02-21T22:17:59;5.57;;;1.83;;
16727;SDS011;8482;54.396;18.590;2024-02-21T22:20:25;4.35;;;1.95;;
16727;SDS011;8482;54.396;18.590;2024-02-21T22:22:51;5.07;;;1.75;;
16727;SDS011;8482;54.396;18.590;2024-02-21T22:25:17;7.10;;;1.90;;
16727;SDS011;8482;54.396;18.590;2024-02-21T22:27:43;6.05;;;2.10;;
16727;SDS011;8482;54.396;18.590;2024-02-21T22:30:09;5.72;;;2.10;;
16727;SDS011;8482;54.396;18.590;2024-02-21T22:32:35;5.13;;;2.47;;
16727;SDS011;8482;54.396;18.590;2024-02-21T22:35:03;6.90;;;2.40;;
16727;SDS011;8482;54.396;18.590;2024-02-21T22:37:29;4.80;;;2.45;;
16727;SDS011;8482;54.396;18.590;2024-02-21T22:39:57;6.07;;;2.47;;
16727;SDS011;8482;54.396;18.590;2024-02-21T22:42:23;5.78;;;2.03;;
16727;SDS011;8482;54.396;18.590;2024-02-21T22:44:50;5.80;;;2.20;;
16727;SDS011;8482;54.396;18.590;2024-02-21T22:47:15;6.50;;;2.10;;
16727;SDS011;8482;54.396;18.590;2024-02-21T22:49:41;7.97;;;2.80;;
16727;SDS011;8482;54.396;18.590;2024-02-21T22:52:07;6.55;;;2.15;;
16727;SDS011;8482;54.396;18.590;2024-02-21T22:54:33;6.35;;;2.45;;
16727;SDS011;8482;54.396;18.590;2024-02-21T22:56:59;6.60;;;2.13;;
16727;SDS011;8482;54.396;18.590;2024-02-21T22:59:27;5.85;;;2.35;;
16727;SDS011;8482;54.396;18.590;2024-02-21T23:01:55;6.60;;;2.80;;
16727;SDS011;8482;54.396;18.590;2024-02-21T23:04:22;7.15;;;2.53;;
16727;SDS011;8482;54.396;18.590;2024-02-21T23:06:48;6.85;;;2.60;;
16727;SDS011;8482;54.396;18.590;2024-02-21T23:09:14;7.80;;;2.95;;
16727;SDS011;8482;54.396;18.590;2024-02-21T23:11:42;8.10;;;2.42;;
16727;SDS011;8482;54.396;18.590;2024-02-21T23:14:09;8.43;;;2.53;;
16727;SDS011;8482;54.396;18.590;2024-02-21T23:16:35;7.78;;;2.53;;
16727;SDS011;8482;54.396;18.590;2024-02-21T23:19:00;8.70;;;2.60;;
16727;SDS011;8482;54.396;18.590;2024-02-21T23:21:26;7.00;;;2.55;;
16727;SDS011;8482;54.396;18.590;2024-02-21T23:23:52;7.53;;;2.92;;
16727;SDS011;8482;54.396;18.590;2024-02-21T23:26:27;7.47;;;2.60;;
16727;SDS011;8482;54.396;18.590;2024-02-21T23:28:59;6.90;;;2.60;;
16727;SDS011;8482;54.396;18.590;2024-02-21T23:31:25;7.72;;;3.20;;
16727;SDS011;8482;54.396;18.590;2024-02-21T23:33:51;6.97;;;2.92;;
16727;SDS011;8482;54.396;18.590;2024-02-21T23:36:17;7.72;;;2.38;;
16727;SDS011;8482;54.396;18.590;2024-02-21T23:38:43;6.65;;;2.38;;
